Central Virginia Flyers


Central Virginia Flyers is a 10 member flying club based in Richmond, VA at Hanover County Airport (KOFP). We own N787AT, a 1977 Cessna 172 with 180hp conversion. If you are interested in membership, please contact Brenton at [email protected]


Aviation Digital Data Service (ADDS)

Output produced by METARs form (0645 UTC 24 April 2019)
found at http://aviationweather.gov/metar/data/
 
KOFP 240554Z AUTO 21006KT 10SM CLR 21/11 A2983 RMK AO2 SLP100 T02110111 10256 20211 58007 TSNO
KRIC 240554Z 22009KT 10SM FEW100 SCT200 BKN300 20/13 A2983 RMK AO2 SLP103 T02000128 10228 20194 58007
KRIC 240520Z 2406/2506 22010KT P6SM SCT100 BKN200 
     FM241000 28005KT P6SM BKN150 
     FM241700 32007KT P6SM SCT050 
     FM250000 VRB03KT P6SM BKN100